Time;durP1;ratioP1;P1;durP2;ratioP2;P2;SDS_P1;SDS_P2;PMS_P1;PMS_P2;Temp;Humidity;BMP_temperature;BMP_pressure;BME280_temperature;BME280_humidity;BME280_pressure;Samples;Min_cycle;Max_cycle;Signal;HPM_P1;HPM_P2
2022/12/29 00:01:01;;;;;;;63.83;22.82;;;;;;;-1.76;84.67;100112.31;1597562;90;21573;-76
2022/12/29 00:03:29;;;;;;;64.45;22.82;;;;;;;-1.80;84.31;100118.55;1596915;90;21713;-76
2022/12/29 00:05:58;;;;;;;62.73;23.52;;;;;;;-1.78;84.82;100111.37;1596941;90;21062;-76
2022/12/29 00:08:39;;;;;;;62.48;22.77;;;;;;;-1.77;84.63;100110.55;1596951;90;21089;-76
2022/12/29 00:10:55;;;;;;;72.37;26.02;;;;;;;-1.81;84.63;100109.17;1594158;90;21364;-76
2022/12/29 00:16:08;;;;;;;63.15;23.80;;;;;;;-1.73;85.07;100104.39;1596176;90;21081;-76
2022/12/29 00:18:35;;;;;;;65.92;24.20;;;;;;;-1.67;85.14;100100.81;1596106;90;21062;-78
2022/12/29 00:44:04;;;;;;;48.60;18.60;;;;;;;-1.92;83.31;100096.38;1596698;89;22199;-76
2022/12/29 00:45:27;;;;;;;54.80;21.00;;;;;;;-2.09;83.66;100105.00;1596408;90;21621;-75
2022/12/29 00:47:54;;;;;;;54.08;19.87;;;;;;;-2.15;83.43;100104.34;1596379;89;21553;-75
2022/12/29 00:50:22;;;;;;;59.98;22.50;;;;;;;-2.22;83.70;100106.17;1596437;89;21086;-75
2022/12/29 00:52:51;;;;;;;77.75;23.77;;;;;;;-2.31;83.74;100105.36;1596374;90;21413;-76
2022/12/29 00:55:18;;;;;;;64.87;22.52;;;;;;;-2.34;83.98;100095.06;1596577;89;21102;-76
2022/12/29 00:57:46;;;;;;;63.98;24.15;;;;;;;-2.37;83.71;100101.28;1596532;89;21074;-76
2022/12/29 01:00:14;;;;;;;63.73;22.93;;;;;;;-2.41;84.32;100090.12;1596469;89;21109;-75
2022/12/29 01:02:41;;;;;;;59.15;23.42;;;;;;;-2.40;84.71;100097.34;1596551;89;21085;-76
2022/12/29 01:05:09;;;;;;;58.70;21.23;;;;;;;-2.35;85.12;100098.81;1596607;90;21066;-75
2022/12/29 01:07:38;;;;;;;59.77;21.55;;;;;;;-2.36;84.79;100094.13;1596626;89;21066;-76
2022/12/29 01:10:12;;;;;;;57.03;21.07;;;;;;;-2.33;84.97;100093.38;1596639;89;21119;-76
2022/12/29 01:12:44;;;;;;;56.60;20.50;;;;;;;-2.28;85.10;100093.19;1605895;88;21563;-76
2022/12/29 01:15:14;;;;;;;59.87;21.53;;;;;;;-2.27;84.80;100097.08;1623301;88;21111;-76
2022/12/29 01:17:43;;;;;;;53.13;20.90;;;;;;;-2.25;84.51;100096.73;1623410;88;21484;-76
2022/12/29 01:20:12;;;;;;;57.13;20.97;;;;;;;-2.29;84.23;100092.32;1625257;88;21507;-76
2022/12/29 01:22:42;;;;;;;49.88;20.62;;;;;;;-2.32;83.91;100092.17;1632376;87;21074;-76
2022/12/29 01:25:09;;;;;;;61.20;22.07;;;;;;;-2.34;84.07;100087.83;1632268;88;21134;-75
2022/12/29 01:27:39;;;;;;;55.43;21.87;;;;;;;-2.40;84.29;100085.89;1632243;86;21145;-76
2022/12/29 01:30:07;;;;;;;62.27;23.40;;;;;;;-2.49;84.23;100077.84;1631984;88;21117;-76
2022/12/29 01:32:35;;;;;;;49.53;22.77;;;;;;;-2.59;84.45;100072.76;1632266;88;21060;-76
2022/12/29 01:35:04;;;;;;;60.43;21.82;;;;;;;-2.63;84.24;100074.70;1632210;87;21047;-76
2022/12/29 01:37:31;;;;;;;56.40;22.60;;;;;;;-2.62;84.87;100081.14;1631730;88;21014;-76
2022/12/29 01:39:59;;;;;;;53.70;21.52;;;;;;;-2.54;85.17;100072.56;1631254;88;21697;-76
2022/12/29 01:42:27;;;;;;;52.67;23.20;;;;;;;-2.54;84.30;100064.06;1631249;88;21571;-76
2022/12/29 01:44:58;;;;;;;61.15;21.87;;;;;;;-2.53;84.66;100064.52;1631186;88;21058;-76
2022/12/29 01:47:59;;;;;;;55.55;22.30;;;;;;;-2.48;84.69;100066.88;1631236;87;21082;-75
2022/12/29 01:50:35;;;;;;;62.20;21.45;;;;;;;-2.45;84.35;100064.44;1630185;88;21017;-77
2022/12/29 01:53:20;;;;;;;64.55;22.87;;;;;;;-2.48;84.08;100056.27;1628829;87;21037;-76
2022/12/29 01:55:53;;;;;;;76.37;23.62;;;;;;;-2.45;83.96;100061.52;1628006;88;21038;-76
2022/12/29 01:58:24;;;;;;;56.25;20.10;;;;;;;-2.47;83.72;100052.91;1628424;87;20999;-76
2022/12/29 02:00:52;;;;;;;61.85;23.20;;;;;;;-2.49;83.88;100048.56;1627990;88;21029;-76
2022/12/29 02:03:23;;;;;;;77.17;22.87;;;;;;;-2.50;83.74;100051.52;1630060;87;20979;-76
2022/12/29 02:06:08;;;;;;;73.85;24.27;;;;;;;-2.51;83.81;100047.63;1625657;88;21022;-76
2022/12/29 02:08:39;;;;;;;75.20;23.32;;;;;;;-2.51;84.04;100043.80;1615215;87;21090;-75
2022/12/29 02:11:07;;;;;;;62.40;20.80;;;;;;;-2.47;84.49;100039.31;1620030;87;20986;-76
2022/12/29 02:13:35;;;;;;;72.90;23.40;;;;;;;-2.47;84.51;100029.98;1631876;87;21038;-76
2022/12/29 02:16:28;;;;;;;64.03;22.73;;;;;;;-2.47;84.27;100032.53;1622851;88;21086;-76
2022/12/29 02:19:14;;;;;;;58.17;18.77;;;;;;;-2.47;84.35;100031.67;1618003;87;21074;-76
2022/12/29 02:21:53;;;;;;;61.13;21.68;;;;;;;-2.47;84.05;100026.17;1618929;87;21083;-75
2022/12/29 02:24:57;;;;;;;55.98;20.62;;;;;;;-2.45;83.96;100032.61;1619741;88;21598;-76
2022/12/29 02:27:30;;;;;;;65.50;22.75;;;;;;;-2.50;83.67;100027.33;1620005;88;21077;-76
2022/12/29 02:30:23;;;;;;;61.65;21.40;;;;;;;-2.57;83.35;100023.18;1616917;88;21054;-76
2022/12/29 02:33:02;;;;;;;61.30;20.75;;;;;;;-2.59;83.79;100030.75;1611557;88;21018;-76
2022/12/29 02:35:41;;;;;;;57.43;20.55;;;;;;;-2.61;83.73;100024.34;1594239;88;21054;-76
2022/12/29 02:38:16;;;;;;;64.92;20.72;;;;;;;-2.61;83.82;100029.81;1614015;88;21475;-76
2022/12/29 02:40:55;;;;;;;62.25;22.55;;;;;;;-2.60;83.78;100026.06;1619095;88;21959;-76
2022/12/29 02:43:52;;;;;;;62.83;21.60;;;;;;;-2.58;83.79;100026.55;1615359;88;21042;-75
2022/12/29 02:46:36;;;;;;;55.43;20.02;;;;;;;-2.55;84.17;100026.66;1615514;88;21081;-76
2022/12/29 02:49:18;;;;;;;62.95;22.42;;;;;;;-2.51;84.11;100020.89;1622867;88;21042;-76
2022/12/29 02:51:57;;;;;;;62.73;24.30;;;;;;;-2.51;83.97;100024.71;1615269;88;21034;-76
2022/12/29 02:54:43;;;;;;;60.75;21.93;;;;;;;-2.53;83.84;100017.41;1616888;88;21011;-76
2022/12/29 02:57:26;;;;;;;66.67;24.95;;;;;;;-2.60;83.82;100020.98;1598336;88;21511;-76
2022/12/29 03:00:15;;;;;;;74.62;25.27;;;;;;;-2.58;83.87;100015.95;1622712;88;21070;-76
2022/12/29 03:03:23;;;;;;;71.70;25.55;;;;;;;-2.57;83.73;100016.81;1615380;88;21551;-76
2022/12/29 03:05:59;;;;;;;70.05;23.35;;;;;;;-2.64;83.90;100015.28;1623588;88;21027;-75
2022/12/29 03:08:57;;;;;;;69.82;23.20;;;;;;;-2.66;84.05;100020.72;1619262;88;21281;-75
2022/12/29 03:17:59;;;;;;;60.40;19.82;;;;;;;-2.63;83.77;100001.77;1548021;91;21495;-76
2022/12/29 03:20:47;;;;;;;66.07;20.25;;;;;;;-2.61;83.70;100009.06;1515661;92;21033;-76
2022/12/29 03:23:16;;;;;;;55.65;19.45;;;;;;;-2.62;83.44;100007.31;1615700;87;21041;-76
2022/12/29 03:25:51;;;;;;;52.00;19.40;;;;;;;-2.66;82.88;99997.80;1630753;88;21546;-76
2022/12/29 03:28:31;;;;;;;42.62;17.40;;;;;;;-2.75;82.57;100002.50;1630020;87;21089;-76
2022/12/29 03:30:59;;;;;;;36.00;16.70;;;;;;;-2.84;82.65;100004.67;1622849;88;21070;-76
2022/12/29 03:33:31;;;;;;;43.90;16.40;;;;;;;-2.81;82.88;100012.00;1602810;88;21105;-76
2022/12/29 03:36:04;;;;;;;35.78;15.65;;;;;;;-2.82;82.71;100014.51;1609080;88;21037;-76
2022/12/29 03:38:46;;;;;;;31.62;14.30;;;;;;;-2.85;82.81;100022.00;1629107;87;21045;-76
2022/12/29 03:41:19;;;;;;;36.75;16.30;;;;;;;-2.85;82.93;100020.73;1611099;87;21058;-76
2022/12/29 03:43:47;;;;;;;36.73;14.68;;;;;;;-2.92;82.71;100031.05;1629258;87;21530;-76
2022/12/29 03:46:15;;;;;;;31.27;13.62;;;;;;;-2.96;82.90;100030.45;1627873;88;21029;-76
2022/12/29 03:48:43;;;;;;;28.23;12.68;;;;;;;-2.95;83.45;100041.48;1630112;87;21111;-76
2022/12/29 03:51:10;;;;;;;33.15;13.75;;;;;;;-2.94;83.55;100047.06;1631890;88;21027;-76
2022/12/29 03:53:39;;;;;;;33.55;14.25;;;;;;;-2.92;83.62;100056.91;1631823;87;20987;-76
2022/12/29 03:56:06;;;;;;;29.50;12.88;;;;;;;-2.94;83.40;100041.56;1631750;88;21053;-76
2022/12/29 03:58:35;;;;;;;28.25;11.83;;;;;;;-2.96;83.17;100037.19;1632032;88;20990;-76
2022/12/29 04:01:04;;;;;;;29.52;11.73;;;;;;;-3.05;83.10;100038.52;1631270;88;21062;-76
2022/12/29 04:03:32;;;;;;;28.85;13.35;;;;;;;-3.06;83.51;100034.67;1632051;88;21975;-76
2022/12/29 04:06:00;;;;;;;26.93;12.35;;;;;;;-3.08;83.54;100034.59;1632062;88;21073;-76
2022/12/29 04:08:29;;;;;;;28.65;11.80;;;;;;;-3.14;83.73;100044.50;1632073;88;21054;-76
2022/12/29 04:10:57;;;;;;;30.75;12.30;;;;;;;-3.13;84.25;100037.73;1631454;88;21104;-76
2022/12/29 04:13:24;;;;;;;31.15;11.57;;;;;;;;;;1631278;87;22216;-76
2022/12/29 04:15:52;;;;;;;30.08;13.40;;;;;;;-3.13;84.25;100048.77;1631232;88;21117;-76
2022/12/29 04:18:19;;;;;;;41.88;15.65;;;;;;;-3.14;84.27;100050.85;1631265;88;21109;-76
2022/12/29 04:21:00;;;;;;;31.52;14.13;;;;;;;-3.16;84.46;100052.84;1631175;87;21121;-75
2022/12/29 04:23:30;;;;;;;36.60;15.18;;;;;;;-3.22;84.36;100049.23;1631373;88;21077;-76
2022/12/29 04:25:59;;;;;;;28.42;13.38;;;;;;;-3.33;84.23;100042.78;1632176;88;21018;-75
2022/12/29 04:28:28;;;;;;;27.20;13.62;;;;;;;-3.40;84.93;100049.27;1610144;88;21697;-76
2022/12/29 04:30:58;;;;;;;27.98;14.03;;;;;;;-3.43;84.71;100052.92;1632108;88;21058;-76
2022/12/29 04:33:31;;;;;;;43.75;15.60;;;;;;;-3.45;84.87;100050.71;1621835;88;21027;-75
2022/12/29 04:35:58;;;;;;;37.67;15.23;;;;;;;-3.48;84.66;100056.05;1597443;89;21020;-76
2022/12/29 04:38:27;;;;;;;52.10;17.62;;;;;;;-3.48;84.97;100054.78;1617621;87;21035;-76
2022/12/29 04:40:55;;;;;;;51.35;16.60;;;;;;;-3.43;85.50;100054.60;1616777;88;21054;-76
2022/12/29 04:43:24;;;;;;;42.70;16.75;;;;;;;-3.37;85.43;100060.38;1616448;89;21106;-76
2022/12/29 04:45:54;;;;;;;47.62;15.60;;;;;;;-3.30;85.42;100059.46;1600755;89;21047;-75
2022/12/29 04:48:26;;;;;;;31.42;14.33;;;;;;;-3.25;85.29;100060.52;1615719;89;21083;-76
2022/12/29 04:51:14;;;;;;;33.23;13.40;;;;;;;-3.17;85.31;100055.79;1614452;89;21094;-76
2022/12/29 04:53:42;;;;;;;33.58;13.58;;;;;;;-3.12;85.12;100063.23;1596100;89;21082;-76
2022/12/29 04:56:09;;;;;;;37.20;15.58;;;;;;;-3.13;84.56;100059.34;1616167;89;21062;-76
2022/12/29 04:58:37;;;;;;;39.53;15.40;;;;;;;-3.12;84.87;100058.15;1616032;89;21606;-76
2022/12/29 05:01:06;;;;;;;40.12;16.10;;;;;;;-3.13;84.05;100056.80;1615986;88;21091;-76
2022/12/29 05:03:33;;;;;;;33.85;14.45;;;;;;;-3.26;83.65;100057.52;1615981;89;21106;-76
2022/12/29 05:06:01;;;;;;;44.65;16.02;;;;;;;-3.33;83.84;100045.73;1615985;88;21067;-76
2022/12/29 05:08:28;;;;;;;47.70;16.35;;;;;;;-3.32;83.97;100057.25;1615967;88;21055;-75
2022/12/29 05:10:57;;;;;;;40.67;15.35;;;;;;;-3.32;83.99;100047.45;1615948;87;21067;-76
2022/12/29 05:13:25;;;;;;;43.33;16.42;;;;;;;-3.26;83.97;100044.81;1616032;87;21058;-76
2022/12/29 05:15:54;;;;;;;35.75;15.40;;;;;;;-3.23;83.57;100038.58;1615842;89;21075;-76
2022/12/29 05:18:23;;;;;;;38.85;15.95;;;;;;;-3.25;83.00;100036.77;1622214;88;21566;-75
2022/12/29 05:20:51;;;;;;;35.78;16.27;;;;;;;-3.27;82.80;100040.92;1630834;87;21665;-76
2022/12/29 05:23:21;;;;;;;42.78;19.32;;;;;;;-3.29;82.96;100051.02;1630763;88;21102;-76
2022/12/29 05:25:50;;;;;;;56.05;20.62;;;;;;;-3.31;82.75;100044.13;1630059;88;21586;-76
2022/12/29 05:28:29;;;;;;;61.55;21.95;;;;;;;-3.32;82.78;100050.00;1629110;87;21640;-75
2022/12/29 05:31:00;;;;;;;56.58;18.42;;;;;;;-3.34;82.97;100048.68;1630431;87;21574;-76
2022/12/29 05:33:29;;;;;;;46.25;20.02;;;;;;;-3.34;83.09;100034.70;1608112;88;22521;-76
2022/12/29 05:35:56;;;;;;;44.58;19.02;;;;;;;-3.44;83.09;100035.08;1630838;87;21999;-76
2022/12/29 05:38:24;;;;;;;39.63;17.15;;;;;;;-3.48;82.97;100039.14;1630779;87;21086;-76
2022/12/29 05:40:52;;;;;;;46.37;17.82;;;;;;;-3.50;83.86;100042.39;1618208;87;22190;-76
2022/12/29 05:43:21;;;;;;;39.92;14.95;;;;;;;-3.49;83.95;100046.28;1573012;88;21362;-76
2022/12/29 05:46:03;;;;;;;47.17;15.98;;;;;;;-3.48;83.73;100049.31;1603192;87;21087;-75
2022/12/29 05:48:35;;;;;;;39.18;16.50;;;;;;;-3.54;83.62;100050.30;1623820;88;21061;-76
2022/12/29 05:51:05;;;;;;;36.10;15.13;;;;;;;-3.59;84.13;100058.10;1615743;87;21080;-76
2022/12/29 05:53:34;;;;;;;36.73;16.57;;;;;;;-3.64;84.21;100060.81;1625512;88;21035;-76
2022/12/29 05:56:03;;;;;;;48.02;17.95;;;;;;;-3.71;83.71;100058.80;1621893;87;21108;-76
2022/12/29 05:58:30;;;;;;;66.12;20.45;;;;;;;-3.74;84.11;100058.27;1620147;88;21040;-76
2022/12/29 06:00:58;;;;;;;56.60;20.72;;;;;;;-3.74;84.20;100064.99;1598797;88;21065;-76
2022/12/29 06:03:26;;;;;;;80.87;24.67;;;;;;;-3.73;84.40;100066.75;1624228;88;21070;-76
2022/12/29 06:05:54;;;;;;;101.02;33.65;;;;;;;-3.69;84.55;100065.69;1624219;87;21120;-76
2022/12/29 06:08:22;;;;;;;106.75;37.03;;;;;;;-3.68;84.25;100059.83;1620646;88;21076;-76
2022/12/29 06:10:50;;;;;;;141.88;43.73;;;;;;;-3.72;83.90;100073.56;1623167;88;21063;-76
2022/12/29 06:13:18;;;;;;;113.10;38.90;;;;;;;-3.73;84.32;100066.75;1624450;87;21065;-75
2022/12/29 06:15:51;;;;;;;114.77;37.93;;;;;;;-3.72;84.35;100074.83;1628444;88;21052;-76
2022/12/29 06:18:20;;;;;;;105.20;35.98;;;;;;;-3.73;84.17;100072.70;1625678;87;21045;-75
2022/12/29 06:20:48;;;;;;;101.87;32.88;;;;;;;-3.71;84.24;100073.64;1624153;88;21648;-75
2022/12/29 06:23:18;;;;;;;79.62;30.00;;;;;;;-3.70;84.16;100070.69;1621999;87;21034;-76
2022/12/29 06:25:48;;;;;;;96.35;32.03;;;;;;;-3.70;84.50;100069.42;1613389;88;21052;-76
2022/12/29 06:28:17;;;;;;;92.80;35.95;;;;;;;-3.68;84.46;100072.91;1622459;86;21156;-76
2022/12/29 06:30:45;;;;;;;82.47;34.78;;;;;;;-3.68;84.36;100075.07;1625419;88;21852;-76
2022/12/29 06:33:13;;;;;;;56.68;25.12;;;;;;;-3.69;84.35;100066.96;1624069;87;21073;-75
2022/12/29 06:35:43;;;;;;;58.20;24.35;;;;;;;-3.65;84.31;100070.12;1622376;88;21101;-76
2022/12/29 06:38:10;;;;;;;55.58;22.42;;;;;;;-3.65;84.72;100071.39;1621071;87;21073;-76
2022/12/29 06:40:38;;;;;;;58.68;22.85;;;;;;;-3.60;84.98;100069.95;1616102;88;21073;-76
2022/12/29 06:43:11;;;;;;;55.98;21.87;;;;;;;-3.54;85.41;100073.56;1607670;87;21630;-76
2022/12/29 06:45:56;;;;;;;60.48;21.00;;;;;;;-3.51;85.47;100073.31;1626010;88;21122;-75
2022/12/29 06:48:24;;;;;;;42.73;18.45;;;;;;;-3.54;84.75;100073.19;1623731;87;21042;-76
2022/12/29 06:50:51;;;;;;;38.42;16.90;;;;;;;-3.57;84.76;100074.70;1622682;87;21049;-76
2022/12/29 06:53:19;;;;;;;43.70;17.42;;;;;;;-3.60;84.81;100077.98;1628870;87;21044;-76
2022/12/29 06:55:46;;;;;;;37.70;17.30;;;;;;;-3.60;85.08;100080.52;1621037;88;21081;-76
2022/12/29 06:58:14;;;;;;;48.00;20.70;;;;;;;-3.61;85.27;100077.09;1624239;88;21109;-76
2022/12/29 07:00:41;;;;;;;43.08;21.07;;;;;;;-3.56;85.17;100082.41;1619247;87;21425;-76
2022/12/29 07:03:09;;;;;;;52.03;22.60;;;;;;;-3.58;85.04;100087.83;1624783;88;21091;-76
2022/12/29 07:05:36;;;;;;;59.55;23.85;;;;;;;-3.62;85.11;100094.42;1623163;87;21085;-75
2022/12/29 07:08:04;;;;;;;51.55;23.18;;;;;;;-3.60;85.38;100089.42;1620340;87;21040;-75
2022/12/29 07:10:32;;;;;;;47.85;19.42;;;;;;;-3.54;85.52;100087.54;1622873;87;21042;-75
2022/12/29 07:12:59;;;;;;;58.85;22.98;;;;;;;-3.53;85.66;100078.72;1626172;87;21051;-76
2022/12/29 07:15:27;;;;;;;49.13;22.80;;;;;;;-3.46;85.89;100076.05;1622237;87;21056;-76
2022/12/29 07:17:55;;;;;;;51.37;22.05;;;;;;;-3.42;85.78;100072.89;1626649;87;21056;-76
2022/12/29 07:20:22;;;;;;;51.42;22.02;;;;;;;-3.33;85.99;100081.33;1623799;87;21060;-76
2022/12/29 07:22:50;;;;;;;50.83;22.70;;;;;;;-3.27;86.04;100094.33;1619505;87;21046;-76
2022/12/29 07:25:17;;;;;;;55.35;21.90;;;;;;;-3.23;85.84;100089.44;1624784;87;21061;-76
2022/12/29 07:27:44;;;;;;;43.87;18.77;;;;;;;-3.18;86.00;100096.41;1624503;86;21093;-76
2022/12/29 07:30:13;;;;;;;34.08;17.75;;;;;;;-3.11;85.80;100099.72;1625645;87;21076;-76
2022/12/29 07:32:41;;;;;;;44.60;19.15;;;;;;;-3.04;86.01;100105.56;1614823;88;21046;-76
2022/12/29 07:35:09;;;;;;;35.63;16.50;;;;;;;-2.95;86.16;100089.83;1617285;88;21091;-76
2022/12/29 07:37:36;;;;;;;34.80;14.20;;;;;;;-2.88;85.89;100088.91;1619486;87;21032;-76
2022/12/29 07:40:06;;;;;;;37.98;17.30;;;;;;;-2.80;85.88;100091.80;1626667;87;21059;-76
2022/12/29 07:42:33;;;;;;;37.93;17.48;;;;;;;-2.73;85.76;100084.02;1620303;87;21023;-76
2022/12/29 07:45:01;;;;;;;45.60;19.05;;;;;;;-2.68;85.66;100068.15;1626702;88;21544;-76
2022/12/29 07:47:36;;;;;;;62.58;24.20;;;;;;;-2.62;86.00;100070.09;1623434;87;21033;-75
2022/12/29 07:50:05;;;;;;;58.10;24.23;;;;;;;-2.52;85.88;100065.86;1614910;87;21056;-75
2022/12/29 07:52:33;;;;;;;65.28;25.48;;;;;;;-2.45;85.76;100065.71;1621974;87;21078;-76
2022/12/29 07:55:00;;;;;;;46.73;22.02;;;;;;;-2.41;85.58;100074.84;1626760;88;21004;-76
2022/12/29 07:57:28;;;;;;;59.42;21.68;;;;;;;-2.38;85.43;100081.73;1620838;87;21022;-76
2022/12/29 07:59:56;;;;;;;46.50;20.00;;;;;;;-2.32;85.39;100080.72;1628358;88;20969;-76
2022/12/29 08:02:23;;;;;;;42.80;21.02;;;;;;;-2.25;85.50;100073.81;1623308;88;21070;-76
2022/12/29 08:04:50;;;;;;;49.65;21.02;;;;;;;-2.17;85.45;100066.46;1624402;88;21076;-76
2022/12/29 08:07:18;;;;;;;44.73;21.15;;;;;;;-2.12;85.32;100064.13;1622725;87;21544;-76
2022/12/29 08:09:46;;;;;;;42.78;20.52;;;;;;;-2.09;85.33;100074.42;1618647;88;22262;-76
2022/12/29 08:12:13;;;;;;;51.20;20.62;;;;;;;-2.05;85.18;100075.02;1623911;88;21492;-76
2022/12/29 08:14:41;;;;;;;50.17;20.30;;;;;;;-2.00;84.89;100076.95;1622144;87;21069;-79
2022/12/29 08:17:08;;;;;;;48.02;20.20;;;;;;;-1.94;84.95;100076.34;1622982;88;21036;-76
2022/12/29 08:19:37;;;;;;;50.50;20.68;;;;;;;-1.85;84.94;100079.27;1625096;87;21098;-76
2022/12/29 08:22:04;;;;;;;37.33;18.02;;;;;;;-1.77;84.77;100079.96;1624664;88;21044;-76
2022/12/29 08:24:32;;;;;;;46.42;18.20;;;;;;;-1.71;84.78;100075.10;1625319;87;21558;-76
2022/12/29 08:26:59;;;;;;;38.10;16.35;;;;;;;-1.75;84.59;100084.34;1623782;88;21636;-76
2022/12/29 08:29:27;;;;;;;37.60;16.00;;;;;;;-1.69;84.49;100078.58;1622107;87;21767;-76
2022/12/29 08:31:55;;;;;;;42.45;18.60;;;;;;;-1.65;84.56;100068.97;1623437;88;22002;-76
2022/12/29 08:34:22;;;;;;;120.62;39.60;;;;;;;-1.60;84.83;100064.94;1619858;87;21181;-77
2022/12/29 08:36:50;;;;;;;44.77;18.57;;;;;;;-1.60;84.76;100070.03;1605148;89;21093;-76
2022/12/29 08:39:18;;;;;;;57.20;26.05;;;;;;;-1.57;84.87;100062.52;1604939;89;21161;-76
2022/12/29 08:41:45;;;;;;;41.58;18.87;;;;;;;-1.57;85.05;100068.00;1605179;89;21610;-76
2022/12/29 08:44:13;;;;;;;50.95;20.08;;;;;;;-1.57;85.24;100067.63;1605111;89;21136;-76
2022/12/29 08:46:40;;;;;;;39.05;17.48;;;;;;;-1.54;85.13;100069.41;1604960;89;21629;-76
2022/12/29 08:49:08;;;;;;;40.55;19.02;;;;;;;-1.51;85.36;100068.23;1605183;89;22006;-76
2022/12/29 08:51:35;;;;;;;52.30;19.85;;;;;;;-1.42;85.43;100066.05;1605133;89;21100;-76
2022/12/29 08:54:03;;;;;;;41.45;20.20;;;;;;;-1.32;85.51;100069.42;1605286;89;21685;-76
2022/12/29 08:56:32;;;;;;;46.80;20.00;;;;;;;-1.22;85.57;100066.81;1604992;89;21131;-76
2022/12/29 08:59:00;;;;;;;52.85;18.30;;;;;;;-1.13;85.50;100060.79;1606055;89;21086;-76
2022/12/29 09:01:30;;;;;;;45.40;17.55;;;;;;;-1.05;85.40;100055.56;1606007;89;21062;-76
2022/12/29 09:03:57;;;;;;;45.15;18.40;;;;;;;-1.00;85.46;100046.78;1605056;89;21129;-76
2022/12/29 09:06:25;;;;;;;43.13;17.25;;;;;;;-0.89;85.50;100043.36;1604892;89;21116;-76
2022/12/29 09:08:55;;;;;;;40.92;18.60;;;;;;;-0.84;85.57;100038.86;1604773;89;21351;-75
2022/12/29 09:11:25;;;;;;;50.10;19.25;;;;;;;-0.80;85.32;100041.12;1606050;89;21695;-76
2022/12/29 09:13:53;;;;;;;34.95;16.77;;;;;;;-0.71;85.60;100036.77;1605166;89;21089;-76
2022/12/29 09:16:23;;;;;;;36.58;17.02;;;;;;;-0.62;85.48;100037.06;1604939;89;21062;-76
2022/12/29 09:18:51;;;;;;;40.38;18.12;;;;;;;-0.56;85.63;100024.92;1604888;89;21129;-76
2022/12/29 09:21:18;;;;;;;44.95;18.80;;;;;;;-0.44;85.69;100031.34;1605295;89;21105;-75
2022/12/29 09:23:46;;;;;;;38.08;19.15;;;;;;;-0.37;85.55;100019.63;1600043;88;21070;-76
2022/12/29 09:26:13;;;;;;;37.03;16.77;;;;;;;-0.29;85.40;100020.75;1606595;88;21149;-76
2022/12/29 09:28:44;;;;;;;34.88;16.62;;;;;;;-0.21;85.41;100023.15;1622105;88;21181;-76
2022/12/29 09:31:11;;;;;;;38.13;17.62;;;;;;;-0.13;85.29;100019.98;1621996;88;21077;-76
2022/12/29 09:33:39;;;;;;;43.48;15.70;;;;;;;-0.12;84.96;100016.21;1597949;89;21083;-76
2022/12/29 09:36:08;;;;;;;40.35;17.77;;;;;;;-0.09;84.75;100013.73;1622020;88;21646;-76
2022/12/29 09:38:36;;;;;;;43.83;18.15;;;;;;;-0.07;84.88;100005.70;1598001;90;21083;-76
2022/12/29 09:41:38;;;;;;;41.18;17.65;;;;;;;-0.03;84.62;100005.41;1621649;88;21078;-76
2022/12/29 09:44:35;;;;;;;36.33;17.20;;;;;;;0.03;84.77;99996.64;1621309;88;21102;-76
2022/12/29 09:47:03;;;;;;;34.88;15.53;;;;;;;0.04;84.43;99994.56;1621924;88;21141;-76
2022/12/29 09:49:45;;;;;;;36.65;16.70;;;;;;;0.08;84.38;99994.22;1621822;88;21153;-76
2022/12/29 09:52:29;;;;;;;43.35;16.73;;;;;;;0.12;84.16;99988.00;1621649;88;21614;-76
2022/12/29 09:55:04;;;;;;;40.55;18.80;;;;;;;0.21;84.54;99994.22;1621498;88;21085;-76
2022/12/29 09:57:58;;;;;;;44.15;17.52;;;;;;;0.25;84.34;99986.67;1597880;89;21591;-76
2022/12/29 10:00:48;;;;;;;53.58;19.57;;;;;;;0.30;83.97;99994.09;1619030;88;21113;-76
2022/12/29 10:03:19;;;;;;;54.15;18.55;;;;;;;0.37;84.16;99984.48;1622734;88;21085;-76
2022/12/29 10:06:07;;;;;;;47.73;18.73;;;;;;;0.51;84.37;99982.33;1597951;90;21072;-76
2022/12/29 10:08:46;;;;;;;41.15;19.57;;;;;;;0.62;84.54;99980.11;1621668;88;21097;-76
2022/12/29 10:11:37;;;;;;;49.95;19.62;;;;;;;0.73;84.37;99972.73;1621654;88;21109;-76
2022/12/29 10:14:52;;;;;;;50.45;19.98;;;;;;;0.85;84.35;99967.95;1619124;88;21118;-76
2022/12/29 10:17:40;;;;;;;37.60;18.32;;;;;;;0.98;84.08;99967.89;1605985;88;21069;-76
2022/12/29 10:20:35;;;;;;;49.83;21.30;;;;;;;1.08;84.01;99961.33;1616241;88;21118;-76
2022/12/29 10:23:26;;;;;;;40.58;17.73;;;;;;;1.20;83.54;99966.77;1618636;87;21095;-76
2022/12/29 10:25:58;;;;;;;41.90;17.20;;;;;;;1.28;83.48;99964.00;1634111;87;21356;-76
2022/12/29 10:28:40;;;;;;;38.63;18.80;;;;;;;1.38;82.48;99956.14;1629172;86;21067;-76
2022/12/29 10:31:16;;;;;;;37.75;17.32;;;;;;;1.49;83.46;99957.68;1631730;87;21126;-76
2022/12/29 10:33:44;;;;;;;39.27;17.95;;;;;;;1.59;83.24;99951.56;1637134;86;21564;-76
2022/12/29 10:36:16;;;;;;;41.92;18.05;;;;;;;1.63;82.55;99951.62;1626334;86;21107;-76
2022/12/29 10:39:07;;;;;;;39.58;18.32;;;;;;;1.71;82.44;99945.88;1636356;87;21555;-76
2022/12/29 10:41:40;;;;;;;38.65;16.90;;;;;;;1.77;82.36;99944.73;1632376;87;21075;-76
2022/12/29 10:44:13;;;;;;;33.77;16.33;;;;;;;1.85;81.52;99945.31;1637662;87;21020;-76
2022/12/29 10:46:42;;;;;;;36.87;16.50;;;;;;;1.93;82.16;99934.81;1631437;87;21298;-76
2022/12/29 10:49:19;;;;;;;48.98;18.55;;;;;;;1.96;82.21;99930.63;1636693;87;21374;-76
2022/12/29 10:51:48;;;;;;;32.95;15.93;;;;;;;1.98;80.96;99925.54;1633449;86;20988;-76
2022/12/29 10:54:33;;;;;;;42.20;17.80;;;;;;;2.05;81.14;99921.41;1599330;90;21044;-76
2022/12/29 10:57:16;;;;;;;36.95;17.10;;;;;;;2.16;80.93;99917.39;1600886;88;21030;-76
2022/12/29 10:59:44;;;;;;;39.10;16.35;;;;;;;2.25;81.14;99920.17;1613601;89;21590;-76
2022/12/29 11:02:20;;;;;;;32.30;16.35;;;;;;;2.38;81.20;99909.73;1605127;87;21082;-77
2022/12/29 11:05:08;;;;;;;43.90;17.00;;;;;;;2.49;81.35;99916.39;1612666;89;21077;-77
2022/12/29 11:07:36;;;;;;;36.88;16.52;;;;;;;2.63;80.14;99915.39;1582162;89;21050;-75
2022/12/29 11:10:40;;;;;;;40.63;17.70;;;;;;;2.74;80.65;99910.89;1625224;87;21071;-76
2022/12/29 11:13:16;;;;;;;36.45;16.80;;;;;;;2.78;80.21;99906.68;1614737;88;21909;-76
2022/12/29 11:15:47;;;;;;;39.10;16.73;;;;;;;2.90;79.41;99904.77;1618819;88;21058;-76
2022/12/29 11:18:24;;;;;;;48.38;16.42;;;;;;;2.94;78.77;99900.99;1598602;88;21004;-76
2022/12/29 11:21:02;;;;;;;34.03;14.53;;;;;;;3.06;79.35;99902.06;1591309;88;21039;-76
2022/12/29 11:23:40;;;;;;;35.88;15.23;;;;;;;3.14;78.07;99886.36;1604814;88;21072;-76
2022/12/29 11:26:23;;;;;;;31.75;14.90;;;;;;;3.27;78.68;99896.45;1605142;89;21016;-76
2022/12/29 11:29:14;;;;;;;29.00;14.95;;;;;;;3.33;78.08;99892.27;1597469;88;21091;-76
2022/12/29 11:31:53;;;;;;;30.68;15.23;;;;;;;3.47;78.25;99887.36;1638222;87;20998;-76
2022/12/29 11:34:26;;;;;;;31.80;14.93;;;;;;;3.55;77.74;99882.34;1630185;87;21112;-76
2022/12/29 11:37:08;;;;;;;30.95;15.13;;;;;;;3.63;77.93;99883.33;1621558;87;21537;-76
2022/12/29 11:39:58;;;;;;;32.40;14.20;;;;;;;3.66;75.65;99882.11;1631293;87;21533;-77
2022/12/29 11:42:50;;;;;;;31.07;14.40;;;;;;;3.73;75.20;99890.34;1637296;87;21037;-76
2022/12/29 11:45:22;;;;;;;31.82;14.00;;;;;;;3.80;77.09;99872.03;1635411;87;21883;-76
2022/12/29 11:48:00;;;;;;;37.35;16.60;;;;;;;3.85;75.91;99887.09;1637312;87;21043;-76
2022/12/29 11:50:32;;;;;;;34.95;15.60;;;;;;;3.92;74.07;99876.45;1596870;87;21018;-76
2022/12/29 11:53:07;;;;;;;33.95;15.25;;;;;;;3.95;72.72;99873.51;1637299;87;21037;-76
2022/12/29 11:55:35;;;;;;;31.93;14.50;;;;;;;4.03;74.64;99872.33;1621949;87;21013;-76
2022/12/29 11:58:04;;;;;;;30.37;14.23;;;;;;;4.14;73.90;99868.64;1638835;87;21137;-76
2022/12/29 12:00:36;;;;;;;29.20;12.82;;;;;;;4.31;73.88;99864.55;1633060;87;20986;-76
2022/12/29 12:03:19;;;;;;;27.27;14.13;;;;;;;4.67;74.89;99856.81;1638754;87;21081;-76
2022/12/29 12:05:59;;;;;;;33.25;15.50;;;;;;;5.14;72.86;99847.41;1627267;87;21053;-76
2022/12/29 12:08:41;;;;;;;32.50;15.75;;;;;;;5.75;69.49;99844.89;1637705;87;21116;-76